createdAt,value
2018-12-09T00:02:05.398Z,0.70
2018-12-09T00:07:08.740Z,0.57
2018-12-09T00:12:11.978Z,0.30
2018-12-09T00:17:15.249Z,0.37
2018-12-09T00:22:18.406Z,1.20
2018-12-09T00:27:21.754Z,0.47
2018-12-09T00:32:25.078Z,0.45
2018-12-09T00:37:28.370Z,0.90
2018-12-09T00:42:31.603Z,0.20
2018-12-09T00:47:34.893Z,0.10
2018-12-09T00:52:38.073Z,0.20
2018-12-09T00:57:41.414Z,0.20
2018-12-09T01:02:44.681Z,0.20
2018-12-09T01:07:47.957Z,0.13
2018-12-09T01:12:51.157Z,0.10
2018-12-09T01:17:54.405Z,0.10
2018-12-09T01:22:57.790Z,0.10
2018-12-09T01:28:01.143Z,0.10
2018-12-09T01:33:04.477Z,0.17
2018-12-09T01:38:07.667Z,0.10
2018-12-09T01:43:10.952Z,0.87
2018-12-09T01:48:14.389Z,0.10
2018-12-09T01:53:28.926Z,0.10
2018-12-09T01:58:32.262Z,0.13
2018-12-09T02:03:35.760Z,0.20
2018-12-09T02:08:38.996Z,0.20
2018-12-09T02:13:42.251Z,0.27
2018-12-09T02:18:45.498Z,0.10
2018-12-09T02:23:48.750Z,0.10
2018-12-09T02:28:51.996Z,0.17
2018-12-09T02:33:55.313Z,0.63
2018-12-09T02:38:58.542Z,0.30
2018-12-09T02:44:01.830Z,0.50
2018-12-09T02:49:05.150Z,0.90
2018-12-09T02:54:08.498Z,0.20
2018-12-09T02:59:12.266Z,0.20
2018-12-09T03:04:15.489Z,0.10
2018-12-09T03:09:18.848Z,0.70
2018-12-09T03:14:22.045Z,0.20
2018-12-09T03:19:25.294Z,0.10
2018-12-09T03:24:28.691Z,1.73
2018-12-09T03:29:32.023Z,0.20
2018-12-09T03:34:35.410Z,0.83
2018-12-09T03:39:38.629Z,0.77
2018-12-09T03:44:41.902Z,0.40
2018-12-09T03:49:45.154Z,2.40
2018-12-09T03:54:48.427Z,1.00
2018-12-09T03:59:51.857Z,1.97
2018-12-09T04:04:58.433Z,0.83
2018-12-09T04:10:03.497Z,1.60
2018-12-09T04:15:10.682Z,1.97
2018-12-09T04:20:23.802Z,1.87
2018-12-09T04:25:30.994Z,1.53
2018-12-09T04:30:39.878Z,0.97
2018-12-09T04:35:49.334Z,0.20
2018-12-09T04:40:58.651Z,0.60
2018-12-09T04:46:05.707Z,5.63
2018-12-09T04:51:12.588Z,0.73
2018-12-09T04:56:19.746Z,0.70
2018-12-09T05:01:29.022Z,1.17
2018-12-09T05:06:38.255Z,1.67
2018-12-09T05:11:47.743Z,1.57
2018-12-09T05:16:53.950Z,1.57
2018-12-09T05:22:03.138Z,0.30
2018-12-09T05:27:12.839Z,0.63
2018-12-09T05:32:21.758Z,0.60
2018-12-09T05:37:31.238Z,1.13
2018-12-09T05:42:38.385Z,1.17
2018-12-09T05:47:47.687Z,1.33
2018-12-09T05:52:54.735Z,0.40
2018-12-09T05:58:03.631Z,0.70
2018-12-09T06:03:12.394Z,0.90
2018-12-09T06:08:21.966Z,1.33
2018-12-09T06:13:30.783Z,1.30
2018-12-09T06:18:40.266Z,0.47
2018-12-09T06:23:49.947Z,1.63
2018-12-09T06:28:59.182Z,0.97
2018-12-09T06:34:08.006Z,1.30
2018-12-09T06:39:15.030Z,0.67
2018-12-09T06:44:24.091Z,0.30
2018-12-09T06:49:30.845Z,1.17
2018-12-09T06:54:39.822Z,2.27
2018-12-09T06:59:48.449Z,2.40
2018-12-09T07:04:57.509Z,1.47
2018-12-09T07:10:08.179Z,0.47
2018-12-09T07:15:17.174Z,1.60
2018-12-09T07:20:26.650Z,2.43
2018-12-09T07:25:35.493Z,1.90
2018-12-09T07:30:44.565Z,2.07
2018-12-09T07:35:51.602Z,2.90
2018-12-09T07:40:59.450Z,1.90
2018-12-09T07:46:08.618Z,2.93
2018-12-09T07:56:17.463Z,3.17
2018-12-09T08:01:20.785Z,2.70
2018-12-09T08:06:24.014Z,3.43
2018-12-09T08:11:27.217Z,1.13
2018-12-09T08:16:30.484Z,4.30
2018-12-09T08:21:33.780Z,1.57
2018-12-09T08:26:37.034Z,0.90
2018-12-09T08:31:40.258Z,4.70
2018-12-09T08:36:43.674Z,2.20
2018-12-09T08:41:47.086Z,2.80
2018-12-09T08:46:50.538Z,1.80
2018-12-09T08:51:53.896Z,1.97
2018-12-09T08:56:57.126Z,3.90
2018-12-09T09:02:00.486Z,2.20
2018-12-09T09:07:03.733Z,1.77
2018-12-09T09:12:07.000Z,3.20
2018-12-09T09:17:10.318Z,2.47
2018-12-09T09:22:13.507Z,2.30
2018-12-09T09:27:16.755Z,1.57
2018-12-09T09:32:19.922Z,3.87
2018-12-09T09:37:23.244Z,2.00
2018-12-09T09:42:26.427Z,1.63
2018-12-09T09:47:29.658Z,1.73
2018-12-09T09:52:32.878Z,0.97
2018-12-09T09:57:36.265Z,0.63
2018-12-09T10:02:39.688Z,1.07
2018-12-09T10:07:44.819Z,1.43
2018-12-09T10:12:51.156Z,1.07
2018-12-09T10:17:54.641Z,0.73
2018-12-09T10:22:59.754Z,0.20
2018-12-09T10:28:03.030Z,0.20
2018-12-09T10:33:07.464Z,0.20
2018-12-09T10:38:33.240Z,0.20
2018-12-09T10:43:36.662Z,1.50
2018-12-09T10:48:46.760Z,0.43
2018-12-09T10:53:50.341Z,0.20
2018-12-09T10:58:53.613Z,0.50
2018-12-09T11:03:57.403Z,0.90
2018-12-09T11:36:42.467Z,0.43
2018-12-09T11:41:45.726Z,3.50
2018-12-09T11:46:49.715Z,0.70
2018-12-09T11:51:52.921Z,2.03
2018-12-09T11:56:56.230Z,0.83
2018-12-09T12:01:59.668Z,0.50
2018-12-09T12:07:02.918Z,2.87
2018-12-09T12:12:06.262Z,2.33
2018-12-09T12:17:09.574Z,3.43
2018-12-09T12:22:12.942Z,5.00
2018-12-09T12:27:16.260Z,2.17
2018-12-09T12:32:19.434Z,3.43
2018-12-09T12:37:22.877Z,1.20
2018-12-09T12:42:26.206Z,2.30
2018-12-09T12:47:29.643Z,1.70
2018-12-09T12:52:32.901Z,0.57
2018-12-09T12:57:36.319Z,1.30
2018-12-09T13:02:39.774Z,7.67
2018-12-09T13:07:43.098Z,0.63
2018-12-09T13:12:46.253Z,0.77
2018-12-09T13:17:49.438Z,1.50
2018-12-09T13:22:52.846Z,1.33
2018-12-09T13:27:56.182Z,0.93
2018-12-09T13:32:59.399Z,0.57
2018-12-09T13:38:02.676Z,1.07
2018-12-09T13:43:05.835Z,1.73
2018-12-09T13:48:09.141Z,1.77
2018-12-09T13:53:12.311Z,0.80
2018-12-09T13:58:15.553Z,1.43
2018-12-09T14:03:18.914Z,1.02
2018-12-09T14:08:22.186Z,0.43
2018-12-09T14:13:25.416Z,0.30
2018-12-09T14:18:28.582Z,1.13
2018-12-09T14:23:31.967Z,0.60
2018-12-09T14:28:35.338Z,0.60
2018-12-09T14:33:38.768Z,0.80
2018-12-09T14:38:42.168Z,1.20
2018-12-09T14:43:45.427Z,1.13
2018-12-09T14:48:48.819Z,0.97
2018-12-09T14:54:10.674Z,1.77
2018-12-09T14:59:13.973Z,2.30
2018-12-09T15:04:23.210Z,1.33
2018-12-09T15:15:03.938Z,1.37
2018-12-09T15:20:23.371Z,1.00
2018-12-09T15:25:32.420Z,0.80
2018-12-09T15:30:41.395Z,1.70
2018-12-09T15:35:44.826Z,2.33
2018-12-09T15:40:48.223Z,1.87
2018-12-09T15:45:51.554Z,2.10
2018-12-09T15:50:54.926Z,0.50
2018-12-09T15:55:58.295Z,1.73
2018-12-09T16:01:01.490Z,0.47
2018-12-09T16:06:04.750Z,1.60
2018-12-09T16:11:08.083Z,2.90
2018-12-09T16:16:11.414Z,0.60
2018-12-09T16:21:14.647Z,1.23
2018-12-09T16:26:17.941Z,1.80
2018-12-09T16:31:21.147Z,1.43
2018-12-09T16:36:24.616Z,3.40
2018-12-09T16:41:27.830Z,1.33
2018-12-09T16:46:31.015Z,0.53
2018-12-09T16:51:34.222Z,1.03
2018-12-09T16:56:37.410Z,2.20
2018-12-09T17:01:40.658Z,1.10
2018-12-09T17:06:43.878Z,0.93
2018-12-09T17:11:47.085Z,0.60
2018-12-09T17:16:50.313Z,0.50
2018-12-09T17:21:53.545Z,1.03
2018-12-09T17:26:56.727Z,1.10
2018-12-09T17:31:59.971Z,1.67
2018-12-09T17:37:03.340Z,0.90
2018-12-09T17:42:06.612Z,0.87
2018-12-09T17:47:09.898Z,3.40
2018-12-09T17:52:13.123Z,0.90
2018-12-09T17:57:16.283Z,2.43
2018-12-09T18:02:19.434Z,0.90
2018-12-09T18:07:22.741Z,1.27
2018-12-09T18:12:25.977Z,1.57
2018-12-09T18:51:13.513Z,3.17
2018-12-09T18:56:16.811Z,1.40
2018-12-09T19:01:20.087Z,1.37
2018-12-09T19:06:23.297Z,4.67
2018-12-09T19:11:26.565Z,2.13
2018-12-09T19:16:29.881Z,1.23
2018-12-09T19:21:33.119Z,1.90
2018-12-09T19:26:36.375Z,2.90
2018-12-09T19:31:39.574Z,1.30
2018-12-09T19:36:42.766Z,1.63
2018-12-09T19:41:45.934Z,1.53
2018-12-09T19:46:49.198Z,1.93
2018-12-09T19:51:52.410Z,2.20
2018-12-09T19:56:55.672Z,2.43
2018-12-09T20:01:59.052Z,1.80
2018-12-09T20:07:02.233Z,3.73
2018-12-09T20:12:05.390Z,1.37
2018-12-09T20:17:08.617Z,3.93
2018-12-09T20:22:11.794Z,1.10
2018-12-09T20:27:15.110Z,2.07
2018-12-09T20:32:18.298Z,3.17
2018-12-09T20:37:25.953Z,3.53
2018-12-09T20:42:31.220Z,4.63
2018-12-09T20:53:06.026Z,4.07
2018-12-09T20:58:09.635Z,4.53
2018-12-09T21:08:45.331Z,2.80
2018-12-09T21:13:48.619Z,3.83
2018-12-09T21:18:51.794Z,2.77
2018-12-09T21:23:55.092Z,2.15
2018-12-09T21:28:58.352Z,3.57
2018-12-09T21:34:01.543Z,3.00
2018-12-09T21:39:06.373Z,2.73
2018-12-09T21:44:09.589Z,7.47
2018-12-09T21:49:12.773Z,4.17
2018-12-09T21:54:16.058Z,3.30
2018-12-09T21:59:19.273Z,5.93
2018-12-09T22:04:22.454Z,5.93
2018-12-09T22:09:25.622Z,2.97
2018-12-09T22:14:29.022Z,5.53
2018-12-09T22:19:32.255Z,8.30
2018-12-09T22:24:35.478Z,3.97
2018-12-09T22:29:38.642Z,5.27
2018-12-09T22:34:41.898Z,4.67
2018-12-09T22:39:45.075Z,6.57
2018-12-09T22:44:48.382Z,5.83
2018-12-09T22:49:51.607Z,4.70
2018-12-09T22:54:54.773Z,5.90
2018-12-09T22:59:58.035Z,5.73
2018-12-09T23:05:01.330Z,4.80
2018-12-09T23:10:04.765Z,5.43
2018-12-09T23:15:07.971Z,3.57
2018-12-09T23:20:11.242Z,5.47
2018-12-09T23:25:15.719Z,5.10
2018-12-09T23:30:19.832Z,5.77
2018-12-09T23:35:23.062Z,5.30
2018-12-09T23:40:26.379Z,5.60
2018-12-09T23:45:29.567Z,10.23
2018-12-09T23:50:32.939Z,5.97
2018-12-09T23:55:36.144Z,3.87
